11°C Temp
-3°C Dewpoint
% Humidity
Temperature
11 KM/H
7 MPH
6 KTS
Calm
Due North

Wind Speed
Clear
Conditions
Pressure 1026.92 (hPa) - 30.32 (in)
Visibility 6.2 (mi) - 10.0 (km)

Current Conditions
LIRQ
Location 35(km)
Metar :LIRQ 220120Z VRB06KT CAVOK 11/M03 Q1027
Fri 22nd March 02:20 am

Airport
  Metar Aviation API Data Provided by https://www.checkwx.com/ PHP scripts by weather34.com ©2019